sensor_id;sensor_type;location;lat;lon;timestamp;P1;durP1;ratioP1;P2;durP2;ratioP2
72949;SDS011;64868;45.710;9.590;2023-02-19T00:00:14;41.17;;;23.50;;
72949;SDS011;64868;45.710;9.590;2023-02-19T00:02:46;45.22;;;24.05;;
72949;SDS011;64868;45.710;9.590;2023-02-19T00:05:16;37.60;;;23.05;;
72949;SDS011;64868;45.710;9.590;2023-02-19T00:07:46;41.70;;;22.83;;
72949;SDS011;64868;45.710;9.590;2023-02-19T00:10:19;40.72;;;23.50;;
72949;SDS011;64868;45.710;9.590;2023-02-19T00:12:51;39.90;;;22.58;;
72949;SDS011;64868;45.710;9.590;2023-02-19T00:15:21;38.60;;;22.27;;
72949;SDS011;64868;45.710;9.590;2023-02-19T00:17:51;41.28;;;23.15;;
72949;SDS011;64868;45.710;9.590;2023-02-19T00:20:24;39.17;;;24.15;;
72949;SDS011;64868;45.710;9.590;2023-02-19T00:22:52;38.25;;;22.60;;
72949;SDS011;64868;45.710;9.590;2023-02-19T00:25:22;38.25;;;22.50;;
72949;SDS011;64868;45.710;9.590;2023-02-19T00:27:55;42.38;;;24.33;;
72949;SDS011;64868;45.710;9.590;2023-02-19T00:30:25;41.78;;;22.83;;
72949;SDS011;64868;45.710;9.590;2023-02-19T00:32:55;41.92;;;23.40;;
72949;SDS011;64868;45.710;9.590;2023-02-19T00:35:25;41.30;;;24.42;;
72949;SDS011;64868;45.710;9.590;2023-02-19T00:37:55;42.50;;;23.52;;
72949;SDS011;64868;45.710;9.590;2023-02-19T00:40:28;38.25;;;22.48;;
72949;SDS011;64868;45.710;9.590;2023-02-19T00:43:01;41.65;;;22.65;;
72949;SDS011;64868;45.710;9.590;2023-02-19T00:45:28;41.30;;;23.40;;
72949;SDS011;64868;45.710;9.590;2023-02-19T00:48:01;42.42;;;23.35;;
72949;SDS011;64868;45.710;9.590;2023-02-19T00:53:01;38.60;;;22.50;;
72949;SDS011;64868;45.710;9.590;2023-02-19T00:55:31;45.58;;;23.67;;
72949;SDS011;64868;45.710;9.590;2023-02-19T00:57:59;38.97;;;22.17;;
72949;SDS011;64868;45.710;9.590;2023-02-19T01:02:59;40.67;;;23.33;;
72949;SDS011;64868;45.710;9.590;2023-02-19T01:05:32;38.58;;;22.45;;
72949;SDS011;64868;45.710;9.590;2023-02-19T01:08:04;41.42;;;21.42;;
72949;SDS011;64868;45.710;9.590;2023-02-19T01:10:37;38.70;;;22.60;;
72949;SDS011;64868;45.710;9.590;2023-02-19T01:13:05;40.63;;;23.60;;
72949;SDS011;64868;45.710;9.590;2023-02-19T01:15:37;40.97;;;22.88;;
72949;SDS011;64868;45.710;9.590;2023-02-19T01:18:08;39.90;;;22.63;;
72949;SDS011;64868;45.710;9.590;2023-02-19T01:20:44;43.50;;;24.60;;
72949;SDS011;64868;45.710;9.590;2023-02-19T01:23:16;40.38;;;23.83;;
72949;SDS011;64868;45.710;9.590;2023-02-19T01:25:46;40.72;;;22.80;;
72949;SDS011;64868;45.710;9.590;2023-02-19T01:28:17;40.03;;;21.77;;
72949;SDS011;64868;45.710;9.590;2023-02-19T01:30:49;37.83;;;21.00;;
72949;SDS011;64868;45.710;9.590;2023-02-19T01:33:19;38.38;;;21.35;;
72949;SDS011;64868;45.710;9.590;2023-02-19T01:35:52;36.67;;;21.40;;
72949;SDS011;64868;45.710;9.590;2023-02-19T01:38:22;46.15;;;21.75;;
72949;SDS011;64868;45.710;9.590;2023-02-19T01:40:56;37.58;;;20.85;;
72949;SDS011;64868;45.710;9.590;2023-02-19T01:43:30;37.70;;;22.23;;
72949;SDS011;64868;45.710;9.590;2023-02-19T01:46:02;39.03;;;21.80;;
72949;SDS011;64868;45.710;9.590;2023-02-19T01:48:36;40.03;;;22.48;;
72949;SDS011;64868;45.710;9.590;2023-02-19T01:51:10;39.97;;;22.10;;
72949;SDS011;64868;45.710;9.590;2023-02-19T01:53:44;42.63;;;22.77;;
72949;SDS011;64868;45.710;9.590;2023-02-19T01:56:21;41.53;;;22.73;;
72949;SDS011;64868;45.710;9.590;2023-02-19T01:58:55;42.47;;;22.80;;
72949;SDS011;64868;45.710;9.590;2023-02-19T02:01:29;43.03;;;24.02;;
72949;SDS011;64868;45.710;9.590;2023-02-19T02:03:59;42.53;;;24.35;;
72949;SDS011;64868;45.710;9.590;2023-02-19T02:06:29;45.58;;;23.70;;
72949;SDS011;64868;45.710;9.590;2023-02-19T02:09:03;43.42;;;24.02;;
72949;SDS011;64868;45.710;9.590;2023-02-19T02:11:52;41.05;;;23.73;;
72949;SDS011;64868;45.710;9.590;2023-02-19T02:17:05;42.67;;;23.73;;
72949;SDS011;64868;45.710;9.590;2023-02-19T02:22:35;44.42;;;22.98;;
72949;SDS011;64868;45.710;9.590;2023-02-19T02:33:28;43.30;;;22.02;;
72949;SDS011;64868;45.710;9.590;2023-02-19T02:36:03;38.95;;;21.63;;
72949;SDS011;64868;45.710;9.590;2023-02-19T02:38:38;41.33;;;23.42;;
72949;SDS011;64868;45.710;9.590;2023-02-19T02:43:42;43.22;;;23.35;;
72949;SDS011;64868;45.710;9.590;2023-02-19T02:46:11;43.92;;;23.92;;
72949;SDS011;64868;45.710;9.590;2023-02-19T02:48:47;43.13;;;23.55;;
72949;SDS011;64868;45.710;9.590;2023-02-19T02:51:28;41.60;;;23.05;;
72949;SDS011;64868;45.710;9.590;2023-02-19T02:57:03;44.92;;;22.98;;
72949;SDS011;64868;45.710;9.590;2023-02-19T02:59:40;41.65;;;23.67;;
72949;SDS011;64868;45.710;9.590;2023-02-19T03:02:13;41.80;;;22.50;;
72949;SDS011;64868;45.710;9.590;2023-02-19T03:04:56;45.83;;;23.77;;
72949;SDS011;64868;45.710;9.590;2023-02-19T03:13:20;46.33;;;23.27;;
72949;SDS011;64868;45.710;9.590;2023-02-19T03:16:18;40.67;;;24.00;;
72949;SDS011;64868;45.710;9.590;2023-02-19T03:19:08;43.78;;;22.30;;
72949;SDS011;64868;45.710;9.590;2023-02-19T03:21:48;39.40;;;22.45;;
72949;SDS011;64868;45.710;9.590;2023-02-19T03:24:30;43.95;;;23.35;;
72949;SDS011;64868;45.710;9.590;2023-02-19T03:27:18;39.75;;;23.05;;
72949;SDS011;64868;45.710;9.590;2023-02-19T03:29:54;41.88;;;23.20;;
72949;SDS011;64868;45.710;9.590;2023-02-19T03:32:33;41.20;;;23.30;;
72949;SDS011;64868;45.710;9.590;2023-02-19T03:35:09;41.97;;;21.95;;
72949;SDS011;64868;45.710;9.590;2023-02-19T03:37:43;42.72;;;22.77;;
72949;SDS011;64868;45.710;9.590;2023-02-19T03:40:19;42.47;;;23.20;;
72949;SDS011;64868;45.710;9.590;2023-02-19T03:43:12;45.47;;;23.52;;
72949;SDS011;64868;45.710;9.590;2023-02-19T03:48:34;45.22;;;23.40;;
72949;SDS011;64868;45.710;9.590;2023-02-19T03:51:49;42.05;;;23.80;;
72949;SDS011;64868;45.710;9.590;2023-02-19T03:54:14;41.85;;;22.63;;
72949;SDS011;64868;45.710;9.590;2023-02-19T03:56:54;45.25;;;24.02;;
72949;SDS011;64868;45.710;9.590;2023-02-19T03:59:49;40.92;;;23.25;;
72949;SDS011;64868;45.710;9.590;2023-02-19T04:02:48;40.20;;;22.63;;
72949;SDS011;64868;45.710;9.590;2023-02-19T04:05:28;43.38;;;22.60;;
72949;SDS011;64868;45.710;9.590;2023-02-19T04:08:00;44.20;;;23.50;;
72949;SDS011;64868;45.710;9.590;2023-02-19T04:10:35;43.20;;;24.38;;
72949;SDS011;64868;45.710;9.590;2023-02-19T04:13:08;42.58;;;23.35;;
72949;SDS011;64868;45.710;9.590;2023-02-19T04:15:45;43.55;;;23.27;;
72949;SDS011;64868;45.710;9.590;2023-02-19T04:18:20;44.65;;;23.30;;
72949;SDS011;64868;45.710;9.590;2023-02-19T04:20:52;48.50;;;23.48;;
72949;SDS011;64868;45.710;9.590;2023-02-19T04:23:24;42.95;;;21.98;;
72949;SDS011;64868;45.710;9.590;2023-02-19T04:25:56;43.70;;;24.17;;
72949;SDS011;64868;45.710;9.590;2023-02-19T04:28:29;44.70;;;23.83;;
72949;SDS011;64868;45.710;9.590;2023-02-19T04:31:00;46.13;;;23.75;;
72949;SDS011;64868;45.710;9.590;2023-02-19T04:33:32;48.47;;;23.92;;
72949;SDS011;64868;45.710;9.590;2023-02-19T04:36:03;46.03;;;24.13;;
72949;SDS011;64868;45.710;9.590;2023-02-19T04:38:33;44.35;;;24.10;;
72949;SDS011;64868;45.710;9.590;2023-02-19T04:43:34;40.97;;;22.13;;
72949;SDS011;64868;45.710;9.590;2023-02-19T04:46:06;45.80;;;23.10;;
72949;SDS011;64868;45.710;9.590;2023-02-19T04:48:36;42.60;;;23.27;;
72949;SDS011;64868;45.710;9.590;2023-02-19T04:51:09;45.25;;;22.95;;
72949;SDS011;64868;45.710;9.590;2023-02-19T04:53:42;44.83;;;22.80;;
72949;SDS011;64868;45.710;9.590;2023-02-19T04:56:15;46.78;;;24.00;;
72949;SDS011;64868;45.710;9.590;2023-02-19T04:58:46;40.90;;;22.83;;
72949;SDS011;64868;45.710;9.590;2023-02-19T05:01:19;42.58;;;22.48;;
72949;SDS011;64868;45.710;9.590;2023-02-19T05:03:52;45.15;;;23.80;;
72949;SDS011;64868;45.710;9.590;2023-02-19T05:06:22;46.97;;;23.48;;
72949;SDS011;64868;45.710;9.590;2023-02-19T05:08:52;42.80;;;23.08;;
72949;SDS011;64868;45.710;9.590;2023-02-19T05:11:22;43.88;;;23.60;;
72949;SDS011;64868;45.710;9.590;2023-02-19T05:13:55;41.25;;;21.83;;
72949;SDS011;64868;45.710;9.590;2023-02-19T05:16:27;42.30;;;23.73;;
72949;SDS011;64868;45.710;9.590;2023-02-19T05:19:00;42.95;;;23.13;;
72949;SDS011;64868;45.710;9.590;2023-02-19T05:21:33;45.22;;;24.05;;
72949;SDS011;64868;45.710;9.590;2023-02-19T05:24:06;43.25;;;22.75;;
72949;SDS011;64868;45.710;9.590;2023-02-19T05:26:34;44.63;;;23.17;;
72949;SDS011;64868;45.710;9.590;2023-02-19T05:29:07;43.42;;;23.25;;
72949;SDS011;64868;45.710;9.590;2023-02-19T05:31:35;42.03;;;22.00;;
72949;SDS011;64868;45.710;9.590;2023-02-19T05:34:07;42.65;;;23.23;;
72949;SDS011;64868;45.710;9.590;2023-02-19T05:36:38;41.47;;;23.17;;
72949;SDS011;64868;45.710;9.590;2023-02-19T05:39:10;39.45;;;22.38;;
72949;SDS011;64868;45.710;9.590;2023-02-19T05:41:38;42.35;;;23.33;;
72949;SDS011;64868;45.710;9.590;2023-02-19T05:44:08;41.88;;;22.45;;
72949;SDS011;64868;45.710;9.590;2023-02-19T05:46:41;44.47;;;23.42;;
72949;SDS011;64868;45.710;9.590;2023-02-19T05:49:14;43.90;;;23.08;;
72949;SDS011;64868;45.710;9.590;2023-02-19T05:51:44;47.25;;;22.95;;
72949;SDS011;64868;45.710;9.590;2023-02-19T05:54:09;43.92;;;22.88;;
72949;SDS011;64868;45.710;9.590;2023-02-19T05:56:41;44.63;;;23.48;;
72949;SDS011;64868;45.710;9.590;2023-02-19T05:59:19;38.38;;;21.17;;
72949;SDS011;64868;45.710;9.590;2023-02-19T06:01:48;42.40;;;22.13;;
72949;SDS011;64868;45.710;9.590;2023-02-19T06:04:19;41.63;;;22.50;;
72949;SDS011;64868;45.710;9.590;2023-02-19T06:06:49;39.42;;;22.90;;
72949;SDS011;64868;45.710;9.590;2023-02-19T06:09:22;43.85;;;23.60;;
72949;SDS011;64868;45.710;9.590;2023-02-19T06:11:52;43.80;;;22.95;;
72949;SDS011;64868;45.710;9.590;2023-02-19T06:14:25;40.22;;;21.20;;
72949;SDS011;64868;45.710;9.590;2023-02-19T06:16:55;40.13;;;22.58;;
72949;SDS011;64868;45.710;9.590;2023-02-19T06:19:23;41.95;;;22.02;;
72949;SDS011;64868;45.710;9.590;2023-02-19T06:21:55;42.78;;;21.98;;
72949;SDS011;64868;45.710;9.590;2023-02-19T06:24:25;45.15;;;22.75;;
72949;SDS011;64868;45.710;9.590;2023-02-19T06:26:55;44.30;;;23.83;;
72949;SDS011;64868;45.710;9.590;2023-02-19T06:29:26;41.72;;;22.48;;
72949;SDS011;64868;45.710;9.590;2023-02-19T06:31:58;48.75;;;23.33;;
72949;SDS011;64868;45.710;9.590;2023-02-19T06:34:31;43.10;;;22.73;;
72949;SDS011;64868;45.710;9.590;2023-02-19T06:37:04;45.90;;;23.40;;
72949;SDS011;64868;45.710;9.590;2023-02-19T06:39:31;42.15;;;22.38;;
72949;SDS011;64868;45.710;9.590;2023-02-19T06:42:02;41.60;;;22.45;;
72949;SDS011;64868;45.710;9.590;2023-02-19T06:44:29;44.90;;;23.60;;
72949;SDS011;64868;45.710;9.590;2023-02-19T06:49:32;47.85;;;22.33;;
72949;SDS011;64868;45.710;9.590;2023-02-19T06:52:02;45.00;;;23.45;;
72949;SDS011;64868;45.710;9.590;2023-02-19T06:54:32;44.90;;;23.83;;
72949;SDS011;64868;45.710;9.590;2023-02-19T06:57:02;42.65;;;22.75;;
72949;SDS011;64868;45.710;9.590;2023-02-19T06:59:30;42.63;;;22.95;;
72949;SDS011;64868;45.710;9.590;2023-02-19T07:01:58;40.65;;;22.40;;
72949;SDS011;64868;45.710;9.590;2023-02-19T07:04:28;40.83;;;21.83;;
72949;SDS011;64868;45.710;9.590;2023-02-19T07:06:58;37.25;;;21.38;;
72949;SDS011;64868;45.710;9.590;2023-02-19T07:09:28;39.70;;;21.60;;
72949;SDS011;64868;45.710;9.590;2023-02-19T07:12:01;41.50;;;21.50;;
72949;SDS011;64868;45.710;9.590;2023-02-19T07:14:31;38.20;;;20.58;;
72949;SDS011;64868;45.710;9.590;2023-02-19T07:17:02;39.50;;;22.25;;
72949;SDS011;64868;45.710;9.590;2023-02-19T07:19:32;39.85;;;20.52;;
72949;SDS011;64868;45.710;9.590;2023-02-19T07:22:02;41.17;;;22.40;;
72949;SDS011;64868;45.710;9.590;2023-02-19T07:24:32;39.17;;;21.00;;
72949;SDS011;64868;45.710;9.590;2023-02-19T07:27:02;38.50;;;21.45;;
72949;SDS011;64868;45.710;9.590;2023-02-19T07:29:35;41.67;;;20.65;;
72949;SDS011;64868;45.710;9.590;2023-02-19T07:32:05;43.88;;;22.63;;
72949;SDS011;64868;45.710;9.590;2023-02-19T07:34:35;42.10;;;22.23;;
72949;SDS011;64868;45.710;9.590;2023-02-19T07:37:05;39.08;;;21.50;;
72949;SDS011;64868;45.710;9.590;2023-02-19T07:39:33;39.42;;;20.42;;
72949;SDS011;64868;45.710;9.590;2023-02-19T07:42:03;38.92;;;21.73;;
72949;SDS011;64868;45.710;9.590;2023-02-19T07:44:33;37.85;;;21.52;;
72949;SDS011;64868;45.710;9.590;2023-02-19T07:47:03;37.55;;;21.05;;
72949;SDS011;64868;45.710;9.590;2023-02-19T07:49:34;41.00;;;21.02;;
72949;SDS011;64868;45.710;9.590;2023-02-19T07:52:06;42.53;;;22.20;;
72949;SDS011;64868;45.710;9.590;2023-02-19T07:54:40;39.83;;;20.80;;
72949;SDS011;64868;45.710;9.590;2023-02-19T07:57:10;45.83;;;21.83;;
72949;SDS011;64868;45.710;9.590;2023-02-19T07:59:40;37.28;;;20.60;;
72949;SDS011;64868;45.710;9.590;2023-02-19T08:02:18;41.20;;;21.73;;
72949;SDS011;64868;45.710;9.590;2023-02-19T08:05:07;38.67;;;20.42;;
72949;SDS011;64868;45.710;9.590;2023-02-19T08:07:40;40.60;;;21.15;;
72949;SDS011;64868;45.710;9.590;2023-02-19T08:10:10;41.28;;;21.50;;
72949;SDS011;64868;45.710;9.590;2023-02-19T08:12:57;38.75;;;20.38;;
72949;SDS011;64868;45.710;9.590;2023-02-19T08:15:42;37.78;;;20.90;;
72949;SDS011;64868;45.710;9.590;2023-02-19T08:18:13;37.45;;;20.00;;
72949;SDS011;64868;45.710;9.590;2023-02-19T08:20:44;42.58;;;21.92;;
72949;SDS011;64868;45.710;9.590;2023-02-19T08:23:14;36.92;;;20.02;;
72949;SDS011;64868;45.710;9.590;2023-02-19T08:25:45;46.05;;;21.48;;
72949;SDS011;64868;45.710;9.590;2023-02-19T08:28:16;37.28;;;21.35;;
72949;SDS011;64868;45.710;9.590;2023-02-19T08:30:46;39.90;;;21.58;;
72949;SDS011;64868;45.710;9.590;2023-02-19T08:33:19;39.33;;;21.55;;
72949;SDS011;64868;45.710;9.590;2023-02-19T08:35:51;39.72;;;21.80;;
72949;SDS011;64868;45.710;9.590;2023-02-19T08:38:22;39.53;;;21.20;;
72949;SDS011;64868;45.710;9.590;2023-02-19T08:40:52;40.30;;;21.35;;
72949;SDS011;64868;45.710;9.590;2023-02-19T08:43:24;38.67;;;22.08;;
72949;SDS011;64868;45.710;9.590;2023-02-19T08:45:52;37.20;;;19.88;;
72949;SDS011;64868;45.710;9.590;2023-02-19T08:48:25;42.70;;;22.73;;
72949;SDS011;64868;45.710;9.590;2023-02-19T08:50:57;37.88;;;21.90;;
72949;SDS011;64868;45.710;9.590;2023-02-19T08:53:30;40.55;;;22.77;;
72949;SDS011;64868;45.710;9.590;2023-02-19T08:56:08;40.00;;;23.25;;
72949;SDS011;64868;45.710;9.590;2023-02-19T08:58:39;41.67;;;22.58;;
72949;SDS011;64868;45.710;9.590;2023-02-19T09:01:12;41.97;;;22.90;;
72949;SDS011;64868;45.710;9.590;2023-02-19T09:03:45;42.05;;;22.98;;
72949;SDS011;64868;45.710;9.590;2023-02-19T09:06:17;40.30;;;22.58;;
72949;SDS011;64868;45.710;9.590;2023-02-19T09:08:47;37.00;;;20.67;;
72949;SDS011;64868;45.710;9.590;2023-02-19T09:11:19;41.33;;;20.65;;
72949;SDS011;64868;45.710;9.590;2023-02-19T09:13:54;37.38;;;21.48;;
72949;SDS011;64868;45.710;9.590;2023-02-19T09:16:24;41.60;;;21.85;;
72949;SDS011;64868;45.710;9.590;2023-02-19T09:18:54;36.45;;;21.15;;
72949;SDS011;64868;45.710;9.590;2023-02-19T09:21:24;37.65;;;21.25;;
72949;SDS011;64868;45.710;9.590;2023-02-19T09:23:52;37.63;;;21.73;;
72949;SDS011;64868;45.710;9.590;2023-02-19T09:26:22;37.55;;;22.23;;
72949;SDS011;64868;45.710;9.590;2023-02-19T09:28:51;40.47;;;21.98;;
72949;SDS011;64868;45.710;9.590;2023-02-19T09:31:21;40.20;;;20.98;;
72949;SDS011;64868;45.710;9.590;2023-02-19T09:33:54;38.92;;;21.25;;
72949;SDS011;64868;45.710;9.590;2023-02-19T09:36:24;38.40;;;22.15;;
72949;SDS011;64868;45.710;9.590;2023-02-19T09:38:54;39.50;;;21.30;;
72949;SDS011;64868;45.710;9.590;2023-02-19T09:44:01;39.88;;;23.58;;
72949;SDS011;64868;45.710;9.590;2023-02-19T09:46:45;40.17;;;24.00;;
72949;SDS011;64868;45.710;9.590;2023-02-19T09:51:48;37.20;;;22.98;;
72949;SDS011;64868;45.710;9.590;2023-02-19T09:54:24;36.60;;;22.40;;
72949;SDS011;64868;45.710;9.590;2023-02-19T09:56:55;39.85;;;24.08;;
72949;SDS011;64868;45.710;9.590;2023-02-19T10:00:06;40.80;;;24.70;;
72949;SDS011;64868;45.710;9.590;2023-02-19T10:02:24;42.95;;;25.75;;
72949;SDS011;64868;45.710;9.590;2023-02-19T10:04:57;42.03;;;24.27;;
72949;SDS011;64868;45.710;9.590;2023-02-19T10:07:25;35.83;;;22.52;;
72949;SDS011;64868;45.710;9.590;2023-02-19T10:10:05;37.35;;;21.48;;
72949;SDS011;64868;45.710;9.590;2023-02-19T10:12:40;42.38;;;22.83;;
72949;SDS011;64868;45.710;9.590;2023-02-19T10:17:51;35.75;;;21.02;;
72949;SDS011;64868;45.710;9.590;2023-02-19T10:20:24;33.15;;;20.55;;
72949;SDS011;64868;45.710;9.590;2023-02-19T10:23:02;33.33;;;19.77;;
72949;SDS011;64868;45.710;9.590;2023-02-19T10:28:08;33.63;;;19.45;;
72949;SDS011;64868;45.710;9.590;2023-02-19T10:30:44;30.52;;;19.45;;
72949;SDS011;64868;45.710;9.590;2023-02-19T10:33:20;28.80;;;18.48;;
72949;SDS011;64868;45.710;9.590;2023-02-19T10:36:37;28.60;;;18.00;;
72949;SDS011;64868;45.710;9.590;2023-02-19T10:38:51;27.08;;;17.17;;
72949;SDS011;64868;45.710;9.590;2023-02-19T10:41:24;30.10;;;18.38;;
72949;SDS011;64868;45.710;9.590;2023-02-19T10:44:04;26.00;;;17.45;;
72949;SDS011;64868;45.710;9.590;2023-02-19T10:46:38;22.70;;;14.88;;
72949;SDS011;64868;45.710;9.590;2023-02-19T10:52:14;20.92;;;13.48;;
72949;SDS011;64868;45.710;9.590;2023-02-19T10:54:46;24.35;;;14.85;;
72949;SDS011;64868;45.710;9.590;2023-02-19T10:59:56;23.52;;;14.65;;
72949;SDS011;64868;45.710;9.590;2023-02-19T11:02:39;20.75;;;13.98;;
72949;SDS011;64868;45.710;9.590;2023-02-19T11:05:14;23.27;;;13.90;;
72949;SDS011;64868;45.710;9.590;2023-02-19T11:07:52;23.65;;;14.18;;
72949;SDS011;64868;45.710;9.590;2023-02-19T11:10:35;21.40;;;12.93;;
72949;SDS011;64868;45.710;9.590;2023-02-19T11:13:12;19.15;;;12.88;;
72949;SDS011;64868;45.710;9.590;2023-02-19T11:15:48;25.85;;;13.00;;
72949;SDS011;64868;45.710;9.590;2023-02-19T11:18:23;21.13;;;12.35;;
72949;SDS011;64868;45.710;9.590;2023-02-19T11:20:57;20.35;;;12.70;;
72949;SDS011;64868;45.710;9.590;2023-02-19T11:23:27;19.15;;;11.32;;
72949;SDS011;64868;45.710;9.590;2023-02-19T11:26:02;18.45;;;10.93;;
72949;SDS011;64868;45.710;9.590;2023-02-19T11:28:36;18.40;;;10.75;;
72949;SDS011;64868;45.710;9.590;2023-02-19T11:31:22;19.77;;;11.73;;
72949;SDS011;64868;45.710;9.590;2023-02-19T11:33:59;30.55;;;11.90;;
72949;SDS011;64868;45.710;9.590;2023-02-19T11:36:36;19.88;;;10.90;;
72949;SDS011;64868;45.710;9.590;2023-02-19T11:41:57;17.85;;;10.63;;
72949;SDS011;64868;45.710;9.590;2023-02-19T11:59:06;20.33;;;12.27;;
72949;SDS011;64868;45.710;9.590;2023-02-19T12:01:51;19.30;;;12.27;;
72949;SDS011;64868;45.710;9.590;2023-02-19T12:07:47;19.88;;;12.02;;
72949;SDS011;64868;45.710;9.590;2023-02-19T12:14:03;19.38;;;11.95;;
72949;SDS011;64868;45.710;9.590;2023-02-19T12:17:14;19.50;;;10.73;;
72949;SDS011;64868;45.710;9.590;2023-02-19T12:22:32;22.80;;;13.50;;
72949;SDS011;64868;45.710;9.590;2023-02-19T12:25:20;23.42;;;13.00;;
72949;SDS011;64868;45.710;9.590;2023-02-19T12:30:36;21.70;;;12.77;;
72949;SDS011;64868;45.710;9.590;2023-02-19T12:39:54;22.33;;;13.00;;
72949;SDS011;64868;45.710;9.590;2023-02-19T12:45:21;23.73;;;12.95;;
72949;SDS011;64868;45.710;9.590;2023-02-19T12:47:59;25.08;;;15.02;;
72949;SDS011;64868;45.710;9.590;2023-02-19T12:50:35;24.38;;;14.50;;
72949;SDS011;64868;45.710;9.590;2023-02-19T12:53:29;24.70;;;13.25;;
72949;SDS011;64868;45.710;9.590;2023-02-19T12:56:43;23.42;;;14.55;;
72949;SDS011;64868;45.710;9.590;2023-02-19T12:59:15;29.73;;;14.80;;
72949;SDS011;64868;45.710;9.590;2023-02-19T13:07:36;26.48;;;14.85;;
72949;SDS011;64868;45.710;9.590;2023-02-19T13:12:53;23.65;;;14.52;;
72949;SDS011;64868;45.710;9.590;2023-02-19T13:15:38;30.42;;;13.73;;
72949;SDS011;64868;45.710;9.590;2023-02-19T13:18:15;23.70;;;14.57;;
72949;SDS011;64868;45.710;9.590;2023-02-19T13:20:46;42.83;;;14.63;;
72949;SDS011;64868;45.710;9.590;2023-02-19T13:23:33;22.55;;;13.57;;
72949;SDS011;64868;45.710;9.590;2023-02-19T13:26:44;21.98;;;13.75;;
72949;SDS011;64868;45.710;9.590;2023-02-19T13:38:04;25.20;;;13.57;;
72949;SDS011;64868;45.710;9.590;2023-02-19T13:40:38;24.98;;;14.43;;
72949;SDS011;64868;45.710;9.590;2023-02-19T13:43:19;20.88;;;12.82;;
72949;SDS011;64868;45.710;9.590;2023-02-19T13:46:17;22.63;;;13.30;;
72949;SDS011;64868;45.710;9.590;2023-02-19T13:48:51;21.42;;;11.85;;
72949;SDS011;64868;45.710;9.590;2023-02-19T13:52:02;17.13;;;10.13;;
72949;SDS011;64868;45.710;9.590;2023-02-19T13:54:51;15.93;;;10.43;;
72949;SDS011;64868;45.710;9.590;2023-02-19T13:57:38;19.65;;;11.98;;
72949;SDS011;64868;45.710;9.590;2023-02-19T14:03:54;20.73;;;11.43;;
72949;SDS011;64868;45.710;9.590;2023-02-19T14:06:56;22.45;;;10.57;;
72949;SDS011;64868;45.710;9.590;2023-02-19T14:14:47;19.63;;;10.75;;
72949;SDS011;64868;45.710;9.590;2023-02-19T14:20:01;16.33;;;9.75;;
72949;SDS011;64868;45.710;9.590;2023-02-19T14:23:00;16.70;;;10.05;;
72949;SDS011;64868;45.710;9.590;2023-02-19T14:25:40;18.60;;;9.07;;
72949;SDS011;64868;45.710;9.590;2023-02-19T14:30:45;15.30;;;8.77;;
72949;SDS011;64868;45.710;9.590;2023-02-19T14:33:22;15.63;;;8.23;;
72949;SDS011;64868;45.710;9.590;2023-02-19T14:36:36;17.05;;;8.88;;
72949;SDS011;64868;45.710;9.590;2023-02-19T14:39:11;17.05;;;8.77;;
72949;SDS011;64868;45.710;9.590;2023-02-19T14:41:47;15.18;;;8.77;;
72949;SDS011;64868;45.710;9.590;2023-02-19T14:44:20;19.70;;;9.52;;
72949;SDS011;64868;45.710;9.590;2023-02-19T14:52:24;18.15;;;8.65;;
72949;SDS011;64868;45.710;9.590;2023-02-19T14:55:00;15.75;;;8.77;;
72949;SDS011;64868;45.710;9.590;2023-02-19T14:57:37;15.18;;;8.65;;
72949;SDS011;64868;45.710;9.590;2023-02-19T15:00:24;17.50;;;9.02;;
72949;SDS011;64868;45.710;9.590;2023-02-19T15:02:57;13.88;;;8.63;;
72949;SDS011;64868;45.710;9.590;2023-02-19T15:05:29;14.48;;;8.63;;
72949;SDS011;64868;45.710;9.590;2023-02-19T15:08:02;16.02;;;8.48;;
72949;SDS011;64868;45.710;9.590;2023-02-19T15:10:35;14.07;;;7.97;;
72949;SDS011;64868;45.710;9.590;2023-02-19T15:13:05;13.48;;;8.07;;
72949;SDS011;64868;45.710;9.590;2023-02-19T15:15:42;15.13;;;7.65;;
72949;SDS011;64868;45.710;9.590;2023-02-19T15:18:20;15.07;;;7.95;;
72949;SDS011;64868;45.710;9.590;2023-02-19T15:20:53;17.52;;;7.20;;
72949;SDS011;64868;45.710;9.590;2023-02-19T15:23:27;14.32;;;7.97;;
72949;SDS011;64868;45.710;9.590;2023-02-19T15:25:54;15.63;;;8.00;;
72949;SDS011;64868;45.710;9.590;2023-02-19T15:28:28;11.57;;;7.05;;
72949;SDS011;64868;45.710;9.590;2023-02-19T15:33:33;16.23;;;7.75;;
72949;SDS011;64868;45.710;9.590;2023-02-19T15:36:04;14.00;;;8.13;;
72949;SDS011;64868;45.710;9.590;2023-02-19T15:38:36;15.95;;;8.18;;
72949;SDS011;64868;45.710;9.590;2023-02-19T15:41:11;14.57;;;8.07;;
72949;SDS011;64868;45.710;9.590;2023-02-19T15:43:49;14.30;;;7.97;;
72949;SDS011;64868;45.710;9.590;2023-02-19T15:46:23;18.35;;;8.65;;
72949;SDS011;64868;45.710;9.590;2023-02-19T15:49:10;15.57;;;8.45;;
72949;SDS011;64868;45.710;9.590;2023-02-19T15:51:49;14.48;;;8.32;;
72949;SDS011;64868;45.710;9.590;2023-02-19T15:54:24;13.55;;;8.07;;
72949;SDS011;64868;45.710;9.590;2023-02-19T15:57:01;15.15;;;8.23;;
72949;SDS011;64868;45.710;9.590;2023-02-19T15:59:42;15.95;;;7.70;;
72949;SDS011;64868;45.710;9.590;2023-02-19T16:02:34;14.95;;;8.13;;
72949;SDS011;64868;45.710;9.590;2023-02-19T16:05:21;15.57;;;8.27;;
72949;SDS011;64868;45.710;9.590;2023-02-19T16:08:14;13.68;;;8.13;;
72949;SDS011;64868;45.710;9.590;2023-02-19T16:10:55;12.98;;;7.45;;
72949;SDS011;64868;45.710;9.590;2023-02-19T16:13:25;15.00;;;7.85;;
72949;SDS011;64868;45.710;9.590;2023-02-19T16:16:04;15.43;;;8.15;;
72949;SDS011;64868;45.710;9.590;2023-02-19T16:18:41;15.65;;;8.10;;
72949;SDS011;64868;45.710;9.590;2023-02-19T16:21:14;13.95;;;7.80;;
72949;SDS011;64868;45.710;9.590;2023-02-19T16:23:46;15.40;;;7.15;;
72949;SDS011;64868;45.710;9.590;2023-02-19T16:26:25;13.73;;;6.95;;
72949;SDS011;64868;45.710;9.590;2023-02-19T16:28:58;17.27;;;6.70;;
72949;SDS011;64868;45.710;9.590;2023-02-19T16:31:26;17.45;;;7.38;;
72949;SDS011;64868;45.710;9.590;2023-02-19T16:36:45;12.35;;;7.13;;
72949;SDS011;64868;45.710;9.590;2023-02-19T16:39:23;13.38;;;6.95;;
72949;SDS011;64868;45.710;9.590;2023-02-19T16:44:32;14.23;;;7.65;;
72949;SDS011;64868;45.710;9.590;2023-02-19T16:47:09;14.80;;;7.50;;
72949;SDS011;64868;45.710;9.590;2023-02-19T16:49:44;14.27;;;6.82;;
72949;SDS011;64868;45.710;9.590;2023-02-19T16:52:12;12.70;;;6.95;;
72949;SDS011;64868;45.710;9.590;2023-02-19T16:54:42;11.75;;;6.25;;
72949;SDS011;64868;45.710;9.590;2023-02-19T16:57:15;13.77;;;6.80;;
72949;SDS011;64868;45.710;9.590;2023-02-19T16:59:46;15.40;;;6.43;;
72949;SDS011;64868;45.710;9.590;2023-02-19T17:02:17;13.65;;;6.35;;
72949;SDS011;64868;45.710;9.590;2023-02-19T17:04:48;13.63;;;6.63;;
72949;SDS011;64868;45.710;9.590;2023-02-19T17:07:21;14.75;;;7.80;;
72949;SDS011;64868;45.710;9.590;2023-02-19T17:09:52;18.45;;;8.95;;
72949;SDS011;64868;45.710;9.590;2023-02-19T17:12:20;14.93;;;8.20;;
72949;SDS011;64868;45.710;9.590;2023-02-19T17:14:50;15.40;;;8.07;;
72949;SDS011;64868;45.710;9.590;2023-02-19T17:17:18;14.82;;;7.85;;
72949;SDS011;64868;45.710;9.590;2023-02-19T17:19:48;15.10;;;7.88;;
72949;SDS011;64868;45.710;9.590;2023-02-19T17:22:16;14.48;;;7.93;;
72949;SDS011;64868;45.710;9.590;2023-02-19T17:24:51;16.85;;;7.10;;